Main page
METAR-TAF:

METAR-TAF

Airports :

Guangzhou Baiyun International Airport

Guangzhou, China

latitude: 23-10N, longitude: 113-20E, elevation: 8 m

Current weather observation

The report was made 40 minutes ago, at 01:30 UTC
Wind 2 kt from variable directions
Temperature 19°C
Humidity 68%
Pressure 1022 hPa
Visibility: 3200 m
Broken clouds at a height of 5000 ft
haze

METAR: ZGGG 150130Z VRB01MPS 3200 HZ BKN050 19/13 Q1022 NOSIG

Time: 10:10 (02:10 UTC)

Forecast

The report was made 5 hours and 4 minutes ago, at 21:06 UTC
Forecast valid from 15 at 00 UTC to 15 at 24 UTC
Wind 6 kt from the East
Visibility: 3500 m
mist
Becoming
from 15 at 02 UTC to 15 at 03 UTC
Visibility: 6000 m

TAF: ZGGG 142106Z 1500/1524 09003MPS 3500 BR NSC TX26/1507Z TN15/1522Z BECMG 1502/1503 6000

Weather observations and forecasts of more than 4000 airports (METAR and TAF reports).

The available stations are represented by yellow and red dots on the map.

Hover mouse over dot to see the name of the station.

Then click to see weather observations and forecasts.

To change the map : click on the green buttons with a black cross to zoom in, on the green button with a dash to zoom out, or on the green arrows for adjacent maps.


METAR-TAF: